Time;durP1;ratioP1;P1;durP2;ratioP2;P2;SDS_P1;SDS_P2;PMS_P1;PMS_P2;Temp;Humidity;BMP_temperature;BMP_pressure;BME280_temperature;BME280_humidity;BME280_pressure;Samples;Min_cycle;Max_cycle;Signal;HPM_P1;HPM_P2
2022/08/26 00:01:13;;;;;;;7.65;5.85;;;24.50;64.50;;;;;;5053840;28;20195;-74
2022/08/26 00:03:41;;;;;;;6.53;5.63;;;24.50;64.50;;;;;;5053636;28;20052;-73
2022/08/26 00:06:08;;;;;;;6.65;6.05;;;24.50;64.40;;;;;;5053988;28;20052;-73
2022/08/26 00:08:35;;;;;;;6.22;5.63;;;24.50;64.40;;;;;;5054019;28;20061;-73
2022/08/26 00:11:03;;;;;;;5.85;5.25;;;24.50;64.40;;;;;;5054636;28;20136;-74
2022/08/26 00:13:30;;;;;;;6.57;5.95;;;24.50;64.40;;;;;;5053602;28;20091;-73
2022/08/26 00:15:57;;;;;;;6.10;5.50;;;24.50;64.40;;;;;;5053447;28;20132;-73
2022/08/26 00:18:23;;;;;;;7.45;6.18;;;24.50;64.40;;;;;;5053823;28;20052;-74
2022/08/26 00:20:52;;;;;;;6.15;5.40;;;24.50;64.40;;;;;;5070024;28;20087;-73
2022/08/26 00:23:19;;;;;;;7.85;5.70;;;24.50;64.40;;;;;;5073493;28;20056;-74
2022/08/26 00:25:45;;;;;;;6.15;5.55;;;24.50;64.40;;;;;;5073417;28;20048;-75
2022/08/26 00:28:12;;;;;;;6.05;5.40;;;24.50;64.40;;;;;;5073522;28;20066;-73
2022/08/26 00:30:39;;;;;;;6.25;5.65;;;24.40;64.40;;;;;;5071239;28;20109;-73
2022/08/26 00:33:06;;;;;;;6.97;5.82;;;24.40;64.40;;;;;;5073281;28;20052;-73
2022/08/26 00:35:32;;;;;;;5.88;5.28;;;24.40;64.30;;;;;;5073216;28;20565;-73
2022/08/26 00:38:00;;;;;;;6.72;5.78;;;24.40;64.40;;;;;;5072721;28;20059;-73
2022/08/26 00:40:30;;;;;;;7.45;5.22;;;24.40;64.40;;;;;;5059546;28;20565;-73
2022/08/26 00:42:56;;;;;;;6.43;5.38;;;24.40;64.40;;;;;;5053394;28;20081;-73
2022/08/26 00:45:23;;;;;;;6.30;5.70;;;24.40;64.40;;;;;;5053143;28;20049;-73
2022/08/26 00:47:53;;;;;;;5.88;5.28;;;24.40;64.30;;;;;;5053074;28;20160;-73
2022/08/26 00:50:21;;;;;;;7.53;5.97;;;24.40;64.90;;;;;;5065583;28;20131;-73
2022/08/26 00:52:48;;;;;;;6.60;5.55;;;24.40;64.30;;;;;;5074257;28;20044;-73
2022/08/26 00:55:18;;;;;;;5.93;5.32;;;24.40;64.40;;;;;;5073019;28;20051;-74
2022/08/26 00:57:45;;;;;;;7.43;5.82;;;24.40;64.30;;;;;;5072932;28;20131;-73
2022/08/26 01:00:15;;;;;;;6.35;5.40;;;24.40;64.40;;;;;;5071989;28;20124;-73
2022/08/26 01:02:42;;;;;;;6.72;5.68;;;24.40;64.30;;;;;;5072863;28;20139;-73
2022/08/26 01:05:09;;;;;;;6.28;5.40;;;24.40;64.40;;;;;;5072660;28;20131;-73
2022/08/26 01:07:37;;;;;;;6.32;5.72;;;24.30;64.30;;;;;;5072786;28;20063;-73
2022/08/26 01:10:05;;;;;;;6.45;5.85;;;24.30;64.40;;;;;;5063983;28;20063;-74
2022/08/26 01:12:39;;;;;;;5.93;5.32;;;24.30;64.30;;;;;;5053844;28;20489;-74
2022/08/26 01:15:07;;;;;;;5.72;5.22;;;24.50;64.40;;;;;;5052616;28;20056;-73
2022/08/26 01:17:34;;;;;;;6.10;5.50;;;24.30;64.30;;;;;;5053550;28;20048;-73
2022/08/26 01:20:02;;;;;;;5.60;5.07;;;24.30;64.40;;;;;;5060006;28;20135;-73
2022/08/26 01:22:31;;;;;;;5.78;5.18;;;24.30;64.30;;;;;;5072492;28;20090;-73
2022/08/26 01:24:59;;;;;;;6.82;5.95;;;24.30;64.30;;;;;;5072478;28;20405;-73
2022/08/26 01:27:26;;;;;;;5.95;5.45;;;24.30;64.30;;;;;;5072325;28;20060;-74
2022/08/26 01:29:52;;;;;;;5.85;5.25;;;24.30;64.40;;;;;;5065272;28;20061;-74
2022/08/26 01:32:20;;;;;;;5.80;5.20;;;24.30;64.30;;;;;;5053217;28;20406;-76
2022/08/26 01:34:47;;;;;;;6.57;5.63;;;24.30;64.30;;;;;;5067343;28;20135;-76
2022/08/26 01:37:15;;;;;;;6.72;5.82;;;24.30;64.30;;;;;;5071980;28;20457;-76
2022/08/26 01:39:42;;;;;;;5.75;5.20;;;24.30;64.30;;;;;;5072193;28;20052;-75
2022/08/26 01:42:12;;;;;;;6.57;5.63;;;24.30;64.30;;;;;;5071838;28;20068;-76
2022/08/26 01:44:43;;;;;;;6.40;5.55;;;24.30;64.30;;;;;;5060649;28;20056;-76
2022/08/26 01:47:10;;;;;;;5.80;5.30;;;24.20;64.30;;;;;;5051949;28;20053;-75
2022/08/26 01:49:37;;;;;;;6.68;6.07;;;24.20;64.30;;;;;;5051954;28;20056;-76
2022/08/26 01:52:04;;;;;;;6.45;5.75;;;24.20;64.30;;;;;;5051575;28;20132;-76
2022/08/26 01:54:31;;;;;;;6.60;5.90;;;24.30;64.30;;;;;;5062363;28;20048;-76
2022/08/26 01:56:58;;;;;;;6.13;5.43;;;24.30;64.30;;;;;;5071698;28;20123;-76
2022/08/26 01:59:26;;;;;;;5.90;5.32;;;24.20;64.30;;;;;;5072892;28;20078;-75
2022/08/26 02:01:52;;;;;;;6.22;5.60;;;24.20;64.30;;;;;;5071317;28;20060;-76
2022/08/26 02:04:22;;;;;;;6.05;5.45;;;24.20;64.30;;;;;;5062068;28;20549;-75
2022/08/26 02:06:48;;;;;;;6.60;6.00;;;24.20;64.30;;;;;;5051426;28;20045;-74
2022/08/26 02:09:15;;;;;;;6.45;5.85;;;24.20;64.30;;;;;;5052785;28;20139;-76
2022/08/26 02:11:43;;;;;;;6.65;5.97;;;24.20;64.30;;;;;;5051012;28;20081;-76
2022/08/26 02:14:11;;;;;;;8.18;6.10;;;24.30;64.40;;;;;;5059025;28;20486;-76
2022/08/26 02:16:40;;;;;;;6.72;6.03;;;24.20;64.40;;;;;;5071325;28;20048;-76
2022/08/26 02:19:08;;;;;;;5.97;5.38;;;24.20;64.30;;;;;;5071436;28;20412;-76
2022/08/26 02:21:35;;;;;;;6.38;5.53;;;24.20;64.30;;;;;;5071193;28;20056;-76
2022/08/26 02:24:09;;;;;;;6.68;5.97;;;24.10;64.30;;;;;;5064704;28;20079;-75
2022/08/26 02:26:36;;;;;;;5.93;5.43;;;24.20;64.30;;;;;;5050966;28;20242;-75
2022/08/26 02:29:05;;;;;;;5.90;5.28;;;24.20;64.40;;;;;;5051300;28;20136;-75
2022/08/26 02:31:32;;;;;;;5.97;5.38;;;24.10;64.30;;;;;;5050996;28;20052;-75
2022/08/26 02:34:09;;;;;;;6.20;5.57;;;24.10;64.30;;;;;;5056470;28;20063;-75
2022/08/26 02:36:35;;;;;;;6.22;5.63;;;24.10;64.30;;;;;;5070991;28;20052;-74
2022/08/26 02:39:02;;;;;;;6.78;6.07;;;24.20;64.40;;;;;;5071162;28;20053;-75
2022/08/26 02:41:29;;;;;;;6.70;5.80;;;24.10;64.30;;;;;;5070849;28;20143;-76
2022/08/26 02:43:55;;;;;;;7.47;5.90;;;24.10;64.30;;;;;;5068782;28;20049;-75
2022/08/26 02:46:22;;;;;;;6.10;5.50;;;24.10;64.30;;;;;;5050989;28;20053;-76
2022/08/26 02:48:49;;;;;;;6.43;5.78;;;24.10;64.40;;;;;;5050878;28;20057;-76
2022/08/26 02:51:18;;;;;;;6.35;5.55;;;24.10;64.40;;;;;;5050508;28;20080;-75
2022/08/26 02:53:44;;;;;;;7.05;6.35;;;24.90;64.60;;;;;;5053991;28;20139;-76
2022/08/26 02:56:11;;;;;;;6.60;5.93;;;24.10;64.40;;;;;;5067747;28;20074;-76
2022/08/26 02:58:38;;;;;;;7.05;5.53;;;24.10;64.40;;;;;;5070745;28;20117;-76
2022/08/26 03:01:05;;;;;;;6.45;5.85;;;24.10;64.40;;;;;;5070389;28;20057;-76
2022/08/26 03:03:31;;;;;;;6.22;5.60;;;24.10;64.40;;;;;;5068873;28;20127;-76
2022/08/26 03:05:58;;;;;;;7.00;5.78;;;24.10;64.40;;;;;;5050770;28;20047;-75
2022/08/26 03:08:26;;;;;;;6.20;5.60;;;24.10;64.40;;;;;;5050752;28;20143;-76
2022/08/26 03:10:53;;;;;;;6.75;5.90;;;24.10;64.40;;;;;;5050532;28;20529;-76
2022/08/26 03:13:20;;;;;;;6.50;5.75;;;24.10;64.40;;;;;;5050207;28;20059;-76
2022/08/26 03:15:46;;;;;;;6.20;5.60;;;24.00;64.40;;;;;;5050875;28;20049;-75
2022/08/26 03:18:13;;;;;;;6.30;5.70;;;24.00;64.40;;;;;;5050685;28;20405;-75
2022/08/26 03:20:40;;;;;;;6.68;5.60;;;24.00;64.40;;;;;;5050507;28;20056;-76
2022/08/26 03:23:07;;;;;;;6.35;5.38;;;24.00;64.40;;;;;;5050602;28;20057;-75
2022/08/26 03:25:38;;;;;;;7.45;5.80;;;24.00;64.40;;;;;;5067267;28;20101;-76
2022/08/26 03:28:05;;;;;;;6.00;5.40;;;24.00;64.40;;;;;;5070652;28;20385;-76
2022/08/26 03:30:40;;;;;;;5.80;5.20;;;24.00;64.50;;;;;;5070336;28;20135;-76
2022/08/26 03:33:07;;;;;;;6.40;5.35;;;24.00;64.50;;;;;;5070357;28;20497;-76
2022/08/26 03:35:33;;;;;;;6.57;5.30;;;24.00;64.50;;;;;;5052619;28;20621;-76
2022/08/26 03:38:00;;;;;;;5.75;5.25;;;24.00;64.50;;;;;;5050459;28;20571;-76
2022/08/26 03:40:27;;;;;;;7.10;5.28;;;24.00;64.50;;;;;;5050168;28;20401;-76
2022/08/26 03:42:55;;;;;;;6.57;5.88;;;24.00;64.50;;;;;;5050167;28;20144;-76
2022/08/26 03:45:22;;;;;;;6.38;5.40;;;24.00;64.50;;;;;;5064622;28;20412;-76
2022/08/26 03:47:49;;;;;;;6.90;6.18;;;24.00;64.50;;;;;;5070448;28;20135;-76
2022/08/26 03:50:17;;;;;;;6.32;5.30;;;24.00;64.50;;;;;;5069950;28;20416;-76
2022/08/26 03:52:44;;;;;;;6.10;5.50;;;24.00;64.50;;;;;;5070248;28;20139;-76
2022/08/26 03:55:11;;;;;;;7.05;5.45;;;24.00;64.50;;;;;;5056114;28;20052;-76
2022/08/26 03:57:38;;;;;;;5.63;5.10;;;24.00;64.50;;;;;;5049785;28;20049;-74
2022/08/26 04:00:07;;;;;;;5.65;5.15;;;24.00;64.50;;;;;;5050006;28;20118;-76
2022/08/26 04:02:34;;;;;;;6.40;5.60;;;24.00;64.50;;;;;;5055816;28;20455;-76
2022/08/26 04:05:01;;;;;;;6.68;5.65;;;24.00;64.60;;;;;;5069953;28;20055;-76
2022/08/26 04:07:28;;;;;;;6.53;5.53;;;24.00;64.50;;;;;;5070213;28;20140;-76
2022/08/26 04:09:55;;;;;;;7.13;5.40;;;24.00;64.60;;;;;;5069818;28;20062;-75
2022/08/26 04:12:22;;;;;;;6.20;5.60;;;24.00;64.50;;;;;;5065840;28;20049;-76
2022/08/26 04:14:49;;;;;;;7.78;6.10;;;24.00;64.60;;;;;;5052390;28;20163;-76
2022/08/26 04:17:17;;;;;;;6.75;6.05;;;24.00;64.60;;;;;;5053677;28;20049;-76
2022/08/26 04:19:44;;;;;;;7.20;6.05;;;23.90;64.50;;;;;;5054754;28;20045;-76
2022/08/26 04:22:10;;;;;;;6.68;5.75;;;23.90;64.50;;;;;;5055290;28;20409;-75
2022/08/26 04:24:38;;;;;;;8.02;6.13;;;24.00;64.60;;;;;;5073532;28;20059;-75
2022/08/26 04:27:05;;;;;;;7.25;6.00;;;23.90;64.50;;;;;;5073565;28;20049;-77
2022/08/26 04:29:31;;;;;;;6.90;6.05;;;23.90;64.50;;;;;;5073936;28;20148;-77
2022/08/26 04:31:58;;;;;;;6.93;6.20;;;24.00;64.60;;;;;;5067738;28;20080;-76
2022/08/26 04:34:28;;;;;;;6.30;5.65;;;23.90;65.00;;;;;;5051076;28;20156;-77
2022/08/26 04:36:55;;;;;;;6.97;6.03;;;23.90;64.50;;;;;;5052597;28;20052;-77
2022/08/26 04:39:21;;;;;;;6.60;5.97;;;23.90;64.50;;;;;;5052879;28;20053;-77
2022/08/26 04:41:49;;;;;;;6.22;5.63;;;23.90;64.50;;;;;;5054076;28;20051;-77
2022/08/26 04:44:15;;;;;;;6.13;5.53;;;23.90;64.50;;;;;;5053181;28;20463;-77
2022/08/26 04:46:42;;;;;;;7.30;5.72;;;23.90;64.50;;;;;;5053030;28;20047;-77
2022/08/26 04:49:09;;;;;;;6.57;5.90;;;23.90;64.50;;;;;;5053066;28;20144;-76
2022/08/26 04:51:37;;;;;;;7.30;5.97;;;23.90;64.50;;;;;;5053753;28;20134;-75
2022/08/26 04:54:05;;;;;;;6.85;5.85;;;23.90;64.50;;;;;;5057838;28;20127;-75
2022/08/26 04:56:33;;;;;;;5.63;5.13;;;23.90;64.50;;;;;;5054343;28;20037;-75
2022/08/26 04:59:00;;;;;;;7.18;5.65;;;23.90;64.50;;;;;;5053872;28;20040;-75
2022/08/26 05:01:27;;;;;;;7.35;6.28;;;23.90;64.50;;;;;;5053854;28;20118;-75
2022/08/26 05:03:54;;;;;;;6.13;5.53;;;23.90;64.50;;;;;;5060203;28;20132;-75
2022/08/26 05:06:21;;;;;;;6.32;5.72;;;23.90;64.50;;;;;;5053980;28;20045;-75
2022/08/26 05:08:49;;;;;;;6.05;5.45;;;23.90;64.50;;;;;;5053132;28;20135;-76
2022/08/26 05:11:16;;;;;;;6.57;5.95;;;23.90;64.50;;;;;;5053627;28;20493;-75
2022/08/26 05:13:43;;;;;;;6.78;6.07;;;23.90;64.50;;;;;;5055503;28;20049;-75
2022/08/26 05:16:10;;;;;;;7.00;6.30;;;23.90;64.50;;;;;;5052534;28;20455;-75
2022/08/26 05:18:37;;;;;;;7.00;6.05;;;23.90;64.50;;;;;;5053564;28;20083;-75
2022/08/26 05:21:04;;;;;;;6.80;5.80;;;23.90;64.50;;;;;;5053252;28;20055;-75
2022/08/26 05:23:32;;;;;;;6.50;5.80;;;23.90;64.50;;;;;;5054249;28;20107;-75
2022/08/26 05:26:00;;;;;;;7.50;5.90;;;23.90;64.70;;;;;;5052990;28;20041;-75
2022/08/26 05:28:27;;;;;;;9.35;6.10;;;23.90;64.50;;;;;;5053199;28;20090;-76
2022/08/26 05:30:54;;;;;;;7.22;5.90;;;23.90;64.50;;;;;;5032732;28;20111;-74
2022/08/26 05:33:21;;;;;;;6.60;5.78;;;23.90;64.50;;;;;;5054450;28;20054;-74
2022/08/26 05:35:48;;;;;;;7.07;6.00;;;23.90;64.40;;;;;;5065963;28;20136;-74
2022/08/26 05:38:19;;;;;;;6.07;5.53;;;24.00;64.50;;;;;;5053402;28;20501;-74
2022/08/26 05:40:47;;;;;;;7.43;6.00;;;23.90;64.40;;;;;;5053164;28;20049;-74
2022/08/26 05:43:16;;;;;;;6.43;5.82;;;23.90;64.40;;;;;;5057581;28;20159;-74
2022/08/26 05:45:43;;;;;;;6.35;5.70;;;23.90;64.80;;;;;;5051722;28;20132;-75
2022/08/26 05:48:10;;;;;;;7.22;6.47;;;23.90;64.50;;;;;;5051781;28;20053;-74
2022/08/26 05:50:37;;;;;;;7.38;5.78;;;23.90;64.40;;;;;;5056017;28;20135;-74
2022/08/26 05:53:05;;;;;;;5.85;5.22;;;23.90;64.40;;;;;;5059979;28;20283;-74
2022/08/26 05:55:32;;;;;;;6.72;5.30;;;23.90;64.40;;;;;;5055122;28;20435;-74
2022/08/26 05:57:59;;;;;;;6.30;5.60;;;23.90;64.50;;;;;;5051607;28;20045;-74
2022/08/26 06:00:27;;;;;;;6.38;5.60;;;23.90;64.40;;;;;;5054092;28;20076;-74
2022/08/26 06:02:54;;;;;;;7.50;6.47;;;23.90;64.40;;;;;;5071726;28;20139;-74
2022/08/26 06:05:21;;;;;;;6.20;5.60;;;23.90;64.40;;;;;;5071538;28;20045;-74
2022/08/26 06:10:32;;;;;;;6.82;6.15;;;23.90;64.40;;;;;;5068100;28;20053;-74
2022/08/26 06:12:58;;;;;;;6.18;5.53;;;23.90;64.50;;;;;;5050950;28;20049;-74
2022/08/26 06:15:27;;;;;;;6.53;5.80;;;23.90;64.40;;;;;;5051186;28;20060;-74
2022/08/26 06:17:53;;;;;;;5.95;5.35;;;23.90;65.00;;;;;;5050400;28;20393;-75
2022/08/26 06:20:20;;;;;;;6.43;5.72;;;23.90;64.50;;;;;;5048879;28;20127;-74
2022/08/26 06:25:40;;;;;;;6.35;5.60;;;23.90;64.40;;;;;;5049527;28;20087;-74
2022/08/26 06:28:07;;;;;;;6.00;5.40;;;23.90;64.40;;;;;;5049285;28;20533;-74
2022/08/26 06:30:39;;;;;;;7.60;5.88;;;23.90;64.50;;;;;;5052640;28;20049;-75
2022/08/26 06:33:06;;;;;;;6.93;5.90;;;23.90;64.40;;;;;;5046826;28;20128;-74
2022/08/26 06:35:36;;;;;;;6.07;5.47;;;23.90;64.40;;;;;;5050898;28;20140;-74
2022/08/26 06:38:03;;;;;;;5.97;5.38;;;23.90;64.40;;;;;;5050087;28;20581;-74
2022/08/26 06:40:30;;;;;;;6.35;5.53;;;23.90;64.40;;;;;;5051324;28;20546;-74
2022/08/26 06:42:56;;;;;;;6.18;5.57;;;23.90;64.40;;;;;;5051162;28;20080;-75
2022/08/26 06:45:23;;;;;;;5.90;5.10;;;23.90;64.40;;;;;;5051177;28;20500;-74
2022/08/26 06:47:51;;;;;;;7.20;5.50;;;23.90;64.40;;;;;;5050843;28;20055;-74
2022/08/26 06:50:18;;;;;;;6.53;5.50;;;24.00;64.40;;;;;;5064707;28;20052;-74
2022/08/26 06:52:45;;;;;;;5.68;5.00;;;23.90;64.90;;;;;;5070692;28;20054;-74
2022/08/26 06:55:12;;;;;;;6.28;5.68;;;23.90;64.40;;;;;;5070870;28;20063;-74
2022/08/26 06:57:38;;;;;;;6.85;5.60;;;23.90;64.40;;;;;;5070913;28;20103;-74
2022/08/26 07:00:07;;;;;;;6.00;5.40;;;24.00;64.50;;;;;;5057944;28;20048;-74
2022/08/26 07:02:34;;;;;;;7.05;5.70;;;24.00;64.40;;;;;;5050957;28;20053;-74
2022/08/26 07:05:02;;;;;;;7.60;5.60;;;23.90;64.30;;;;;;5050516;28;20049;-77
2022/08/26 07:07:29;;;;;;;6.05;5.45;;;24.00;64.40;;;;;;5050487;28;20049;-77
2022/08/26 07:09:56;;;;;;;6.05;5.45;;;24.00;64.40;;;;;;5060651;28;20421;-76
2022/08/26 07:12:22;;;;;;;6.78;5.40;;;24.10;64.40;;;;;;5071161;28;20135;-77
2022/08/26 07:14:49;;;;;;;5.90;5.40;;;24.00;64.40;;;;;;5052420;28;20075;-75
2022/08/26 07:17:16;;;;;;;6.20;5.43;;;24.00;64.30;;;;;;5050828;28;20055;-76
2022/08/26 07:19:42;;;;;;;6.90;6.05;;;24.00;64.30;;;;;;5054696;28;20140;-77
2022/08/26 07:22:10;;;;;;;5.82;5.20;;;24.00;64.30;;;;;;5030485;28;20064;-77
2022/08/26 07:24:39;;;;;;;5.95;5.43;;;24.00;64.20;;;;;;5030864;28;20144;-75
2022/08/26 07:27:07;;;;;;;6.30;5.70;;;24.00;64.20;;;;;;5030920;28;20056;-76
2022/08/26 07:29:34;;;;;;;6.72;5.80;;;24.00;64.20;;;;;;5045197;28;20055;-74
2022/08/26 07:32:01;;;;;;;5.68;5.10;;;24.10;64.20;;;;;;5070593;28;20106;-76
2022/08/26 07:34:28;;;;;;;6.05;5.45;;;24.00;64.10;;;;;;5070803;28;20131;-75
2022/08/26 07:36:55;;;;;;;6.78;5.50;;;24.10;64.20;;;;;;5070583;28;20057;-76
2022/08/26 07:39:23;;;;;;;6.47;5.55;;;24.10;64.20;;;;;;5065991;28;20060;-75
2022/08/26 07:41:50;;;;;;;6.78;5.30;;;24.10;64.10;;;;;;5050141;28;20056;-75
2022/08/26 07:44:17;;;;;;;6.97;5.78;;;24.10;64.10;;;;;;5050373;28;20148;-76
2022/08/26 07:46:44;;;;;;;6.40;5.50;;;24.10;64.10;;;;;;5049993;28;20048;-76
2022/08/26 07:49:11;;;;;;;6.40;5.50;;;24.10;64.10;;;;;;5055005;28;20234;-76
2022/08/26 07:51:38;;;;;;;5.97;5.38;;;24.10;64.10;;;;;;5054296;28;20079;-76
2022/08/26 07:54:05;;;;;;;7.53;5.85;;;24.20;64.10;;;;;;5054218;28;20048;-76
2022/08/26 07:56:34;;;;;;;6.60;6.00;;;24.20;64.10;;;;;;5054558;28;20554;-77
2022/08/26 07:59:01;;;;;;;6.68;5.97;;;24.20;64.10;;;;;;5054604;28;20084;-76
2022/08/26 08:01:28;;;;;;;6.10;5.30;;;24.20;64.40;;;;;;5066017;28;20096;-74
2022/08/26 08:03:55;;;;;;;7.35;5.20;;;24.20;64.10;;;;;;5075116;28;20482;-74
2022/08/26 08:06:23;;;;;;;6.63;5.53;;;24.20;64.00;;;;;;5074198;28;20058;-74
2022/08/26 08:08:50;;;;;;;6.07;5.47;;;24.30;64.00;;;;;;5075477;28;20166;-77
2022/08/26 08:11:19;;;;;;;6.28;5.68;;;24.30;64.00;;;;;;5053963;28;20072;-77
2022/08/26 08:13:47;;;;;;;5.93;5.30;;;24.30;64.00;;;;;;5054089;28;20063;-77
2022/08/26 08:16:14;;;;;;;6.05;5.47;;;24.30;63.90;;;;;;5054028;28;20183;-77
2022/08/26 08:18:41;;;;;;;6.50;5.72;;;24.30;63.90;;;;;;5055187;28;20465;-75
2022/08/26 08:21:08;;;;;;;9.73;6.15;;;24.30;64.20;;;;;;5066378;28;20060;-75
2022/08/26 08:23:35;;;;;;;8.07;6.07;;;24.30;64.00;;;;;;5062053;28;20383;-76
2022/08/26 08:26:02;;;;;;;6.20;5.60;;;24.30;64.20;;;;;;5053885;28;20444;-75
2022/08/26 08:28:28;;;;;;;6.30;5.70;;;24.30;64.60;;;;;;5053548;28;20131;-76
2022/08/26 08:30:57;;;;;;;11.13;7.80;;;24.30;64.10;;;;;;5053643;28;20151;-75
2022/08/26 08:33:23;;;;;;;8.90;6.40;;;24.40;65.10;;;;;;5053808;28;20414;-74
2022/08/26 08:35:50;;;;;;;6.72;5.97;;;24.30;64.50;;;;;;5053381;28;20132;-76
2022/08/26 08:38:17;;;;;;;7.55;6.45;;;24.30;64.50;;;;;;5053453;28;20734;-75
2022/08/26 08:40:44;;;;;;;7.97;6.40;;;24.40;64.50;;;;;;5052413;28;20059;-74
2022/08/26 08:43:12;;;;;;;7.65;6.85;;;24.40;64.50;;;;;;5052724;28;20128;-75
2022/08/26 08:45:40;;;;;;;10.00;7.10;;;24.30;64.50;;;;;;5052207;28;20055;-77
2022/08/26 08:48:19;;;;;;;10.57;7.68;;;24.40;64.60;;;;;;5052037;28;20490;-76
2022/08/26 08:50:47;;;;;;;10.18;6.95;;;24.30;64.70;;;;;;5051869;28;20063;-76
2022/08/26 08:53:16;;;;;;;8.55;6.55;;;24.30;64.70;;;;;;5050496;28;20045;-76
2022/08/26 08:55:48;;;;;;;8.90;6.38;;;24.30;64.70;;;;;;5052767;28;20045;-76
2022/08/26 08:58:17;;;;;;;7.35;6.43;;;24.30;64.60;;;;;;5050138;28;20505;-76
2022/08/26 09:00:46;;;;;;;10.95;7.57;;;24.30;64.60;;;;;;5051268;28;20049;-76
2022/08/26 09:03:22;;;;;;;9.52;7.65;;;24.30;64.70;;;;;;5051880;28;20096;-76
2022/08/26 09:05:50;;;;;;;8.80;6.85;;;24.40;64.90;;;;;;5052534;28;20059;-74
2022/08/26 09:08:19;;;;;;;9.18;7.38;;;24.30;65.00;;;;;;5052699;28;20048;-74
2022/08/26 09:10:49;;;;;;;8.90;7.70;;;24.30;65.10;;;;;;5052856;28;20136;-74
2022/08/26 09:13:17;;;;;;;12.10;7.70;;;24.30;65.10;;;;;;5054231;28;20053;-74
2022/08/26 09:15:50;;;;;;;10.18;7.40;;;24.30;65.20;;;;;;5052247;28;20136;-75
2022/08/26 09:18:24;;;;;;;10.38;7.82;;;24.40;65.20;;;;;;5050236;28;20045;-75
2022/08/26 09:20:54;;;;;;;11.60;7.82;;;24.30;65.20;;;;;;5051941;28;20049;-75
2022/08/26 09:23:21;;;;;;;10.18;7.70;;;24.30;65.20;;;;;;5051935;28;20052;-75
2022/08/26 09:25:49;;;;;;;11.10;8.35;;;24.30;65.30;;;;;;5035266;28;20056;-75
2022/08/26 09:28:17;;;;;;;12.95;8.80;;;24.30;65.30;;;;;;5052388;28;20079;-76
2022/08/26 09:30:45;;;;;;;11.45;8.20;;;24.40;65.50;;;;;;5052353;28;20059;-76
2022/08/26 09:33:13;;;;;;;10.98;8.55;;;24.40;65.50;;;;;;5052418;28;20505;-76
2022/08/26 09:35:46;;;;;;;8.85;7.68;;;24.40;65.60;;;;;;5052154;28;20076;-75
2022/08/26 09:38:21;;;;;;;9.48;7.70;;;24.30;65.50;;;;;;5032898;28;20053;-74
2022/08/26 09:40:55;;;;;;;8.13;7.10;;;24.40;65.50;;;;;;5048519;28;20062;-74
2022/08/26 09:43:22;;;;;;;9.48;7.13;;;24.40;65.40;;;;;;5032630;28;20068;-74
2022/08/26 09:45:53;;;;;;;12.05;7.40;;;24.40;66.00;;;;;;5040293;28;20057;-74
2022/08/26 09:48:28;;;;;;;10.02;7.93;;;24.40;65.30;;;;;;5052125;28;20127;-76
2022/08/26 09:50:57;;;;;;;9.68;7.60;;;24.40;65.40;;;;;;5051447;28;20057;-76
2022/08/26 09:53:26;;;;;;;15.82;7.22;;;24.40;65.60;;;;;;5051820;28;20092;-76
2022/08/26 09:56:15;;;;;;;10.50;7.55;;;24.40;65.50;;;;;;5051820;28;20057;-76
2022/08/26 09:58:42;;;;;;;10.77;7.03;;;24.50;65.80;;;;;;5051350;28;20424;-77
2022/08/26 10:01:15;;;;;;;9.50;7.25;;;24.50;65.70;;;;;;5050855;28;20057;-76
2022/08/26 10:03:42;;;;;;;13.07;7.90;;;24.50;65.50;;;;;;5051796;28;20048;-76
2022/08/26 10:06:22;;;;;;;9.32;7.30;;;24.50;65.40;;;;;;5051866;28;20053;-75
2022/08/26 10:08:50;;;;;;;10.50;6.97;;;24.50;65.40;;;;;;5051024;28;20094;-77
2022/08/26 10:11:19;;;;;;;9.65;7.05;;;24.50;65.40;;;;;;5047584;28;20049;-77
2022/08/26 10:13:47;;;;;;;9.32;6.78;;;24.50;65.30;;;;;;5050680;28;20525;-75
2022/08/26 10:16:16;;;;;;;9.52;6.95;;;24.50;65.30;;;;;;5050973;28;20055;-75
2022/08/26 10:18:44;;;;;;;12.23;7.57;;;24.50;65.30;;;;;;5050734;28;20056;-75
2022/08/26 10:21:15;;;;;;;10.13;7.40;;;24.50;65.30;;;;;;5050552;28;20124;-75
2022/08/26 10:23:43;;;;;;;11.82;7.90;;;24.50;65.20;;;;;;5051286;28;20406;-76
2022/08/26 10:26:13;;;;;;;8.40;7.03;;;24.60;65.40;;;;;;5050221;28;20052;-76
2022/08/26 10:28:42;;;;;;;10.35;6.90;;;24.60;65.30;;;;;;5050580;28;20052;-75
2022/08/26 10:31:22;;;;;;;9.00;7.13;;;24.60;65.30;;;;;;5048291;28;20128;-76
2022/08/26 10:33:48;;;;;;;9.80;7.18;;;24.50;65.10;;;;;;5048279;28;20128;-77
2022/08/26 10:38:59;;;;;;;9.35;7.05;;;24.60;65.30;;;;;;5050363;28;20719;-76
2022/08/26 10:41:26;;;;;;;11.75;6.88;;;24.60;65.30;;;;;;5050883;28;20161;-74
2022/08/26 10:43:55;;;;;;;8.95;6.90;;;24.60;65.20;;;;;;5050627;28;20060;-74
2022/08/26 10:46:23;;;;;;;9.32;7.30;;;24.60;65.00;;;;;;5051042;28;20554;-74
2022/08/26 10:48:52;;;;;;;8.18;6.90;;;24.60;65.00;;;;;;5051386;28;20049;-74
2022/08/26 10:51:23;;;;;;;9.68;7.07;;;24.60;64.90;;;;;;5051815;28;20127;-74
2022/08/26 10:53:53;;;;;;;11.88;6.25;;;24.60;65.00;;;;;;5050231;28;20063;-76
2022/08/26 10:56:29;;;;;;;8.77;6.55;;;24.60;64.90;;;;;;5048060;28;20509;-75
2022/08/26 10:59:01;;;;;;;8.55;6.85;;;24.80;64.90;;;;;;5050391;28;20053;-75
2022/08/26 11:01:45;;;;;;;8.27;6.57;;;24.60;64.80;;;;;;5050099;28;20165;-75
2022/08/26 11:04:28;;;;;;;8.57;6.30;;;24.60;64.80;;;;;;5051108;28;20501;-74
2022/08/26 11:07:33;;;;;;;7.70;6.20;;;24.60;64.70;;;;;;5050975;28;20060;-74
2022/08/26 11:10:01;;;;;;;8.02;6.20;;;24.70;64.70;;;;;;5063416;28;20057;-74
2022/08/26 11:12:48;;;;;;;9.60;6.78;;;24.50;64.70;;;;;;5051891;28;20517;-73
2022/08/26 11:15:39;;;;;;;8.38;6.35;;;24.60;64.60;;;;;;5051721;28;20433;-74
2022/08/26 11:18:06;;;;;;;7.88;6.50;;;24.60;64.60;;;;;;5050536;28;20065;-73
2022/08/26 11:20:37;;;;;;;8.18;6.03;;;24.60;64.70;;;;;;5051372;28;20055;-74
2022/08/26 11:23:46;;;;;;;8.00;5.90;;;24.60;64.60;;;;;;5051445;28;20577;-73
2022/08/26 11:26:14;;;;;;;9.50;5.88;;;24.60;64.50;;;;;;5051823;28;20041;-74
2022/08/26 11:28:42;;;;;;;8.50;6.18;;;24.60;64.60;;;;;;5051756;28;20063;-75
2022/08/26 11:31:10;;;;;;;9.50;5.93;;;24.60;64.60;;;;;;5050599;28;20067;-75
2022/08/26 11:33:56;;;;;;;7.18;5.63;;;24.60;64.60;;;;;;5050481;28;20186;-75
2022/08/26 11:36:34;;;;;;;6.90;5.40;;;24.60;64.50;;;;;;5050740;28;20052;-74
2022/08/26 11:39:03;;;;;;;7.28;5.57;;;24.60;64.50;;;;;;5050492;28;20053;-76
2022/08/26 11:41:30;;;;;;;7.97;5.53;;;24.60;64.50;;;;;;5050100;28;20061;-76
2022/08/26 11:43:58;;;;;;;7.47;5.78;;;24.60;64.50;;;;;;5049792;28;20061;-76
2022/08/26 11:46:26;;;;;;;9.20;5.55;;;24.60;64.50;;;;;;5049821;28;20478;-77
2022/08/26 11:48:59;;;;;;;8.10;5.53;;;24.60;64.40;;;;;;5050108;28;20048;-77
2022/08/26 11:51:26;;;;;;;6.35;5.15;;;24.70;64.40;;;;;;5050077;28;20057;-76
2022/08/26 11:54:09;;;;;;;7.65;5.50;;;24.70;64.50;;;;;;5051468;28;20405;-76
2022/08/26 11:56:36;;;;;;;7.75;5.65;;;24.60;64.40;;;;;;5050307;28;20080;-76
2022/08/26 11:59:04;;;;;;;8.68;5.55;;;24.70;64.40;;;;;;5050214;28;20152;-74
2022/08/26 12:01:31;;;;;;;6.88;5.20;;;24.70;64.40;;;;;;5050852;28;20407;-76
2022/08/26 12:03:58;;;;;;;6.70;5.43;;;24.70;64.40;;;;;;5050361;28;20555;-74
2022/08/26 12:06:26;;;;;;;7.47;5.72;;;24.70;64.40;;;;;;5051492;28;20088;-72
2022/08/26 12:08:53;;;;;;;8.73;4.90;;;24.70;64.40;;;;;;5049721;28;20132;-72
2022/08/26 12:11:23;;;;;;;6.07;5.00;;;24.70;64.40;;;;;;5050094;28;20057;-73
2022/08/26 12:13:57;;;;;;;6.50;5.40;;;24.70;64.30;;;;;;5049955;28;20053;-73
2022/08/26 12:16:25;;;;;;;5.50;4.90;;;24.70;64.30;;;;;;5050463;28;20506;-72
2022/08/26 12:18:52;;;;;;;5.90;4.80;;;24.70;64.30;;;;;;5049962;28;20045;-74
2022/08/26 12:21:21;;;;;;;7.25;5.07;;;24.70;64.30;;;;;;5050924;28;20127;-72
2022/08/26 12:23:48;;;;;;;6.85;4.78;;;24.70;64.30;;;;;;5049978;28;20053;-72
2022/08/26 12:26:21;;;;;;;6.07;4.80;;;24.70;64.30;;;;;;5050148;28;20056;-72
2022/08/26 12:28:50;;;;;;;6.55;4.85;;;24.80;64.30;;;;;;5047524;28;20056;-73
2022/08/26 12:31:25;;;;;;;6.90;4.97;;;24.70;64.30;;;;;;5049712;28;20107;-72
2022/08/26 12:33:52;;;;;;;6.45;4.97;;;24.70;64.30;;;;;;5050030;28;20120;-73
2022/08/26 12:36:22;;;;;;;6.93;4.80;;;24.70;64.30;;;;;;5052830;28;20048;-74
2022/08/26 12:38:49;;;;;;;5.68;4.75;;;24.70;64.30;;;;;;5055792;28;20053;-75
2022/08/26 12:41:39;;;;;;;7.43;4.82;;;24.70;64.20;;;;;;5061343;28;20140;-75
2022/08/26 12:44:05;;;;;;;6.15;4.95;;;24.80;64.20;;;;;;5052924;28;20068;-75
2022/08/26 12:46:32;;;;;;;6.25;4.63;;;24.70;64.20;;;;;;5053677;28;20060;-75
2022/08/26 12:49:00;;;;;;;7.45;4.60;;;24.70;64.30;;;;;;5053317;28;20063;-74
2022/08/26 12:51:27;;;;;;;6.18;4.50;;;24.70;64.30;;;;;;5054127;28;20045;-74
2022/08/26 12:53:54;;;;;;;5.53;4.18;;;24.70;64.30;;;;;;5053315;28;20482;-74
2022/08/26 12:56:26;;;;;;;6.13;4.68;;;24.70;64.20;;;;;;5052945;28;20132;-74
2022/08/26 12:59:06;;;;;;;7.45;4.70;;;24.70;64.30;;;;;;5053208;28;20103;-75
2022/08/26 13:01:38;;;;;;;7.07;4.57;;;24.70;64.20;;;;;;5053685;28;20561;-74